Time;durP1;ratioP1;P1;durP2;ratioP2;P2;SDS_P1;SDS_P2;PMS_P1;PMS_P2;Temp;Humidity;BMP_temperature;BMP_pressure;BME280_temperature;BME280_humidity;BME280_pressure;Samples;Min_cycle;Max_cycle;Signal;HPM_P1;HPM_P2
2021/09/28 00:00:57;;;;;;;4.90;1.42;;;19.70;64.60;;;;;;4996736;28;20100;-67
2021/09/28 00:03:25;;;;;;;2.47;1.15;;;19.70;64.40;;;;;;4995548;28;20074;-66
2021/09/28 00:05:52;;;;;;;4.80;1.60;;;19.80;64.40;;;;;;4996276;28;20025;-66
2021/09/28 00:08:20;;;;;;;2.63;1.30;;;19.80;64.10;;;;;;4998422;28;20026;-67
2021/09/28 00:10:47;;;;;;;2.78;1.42;;;19.90;64.60;;;;;;4996863;28;20033;-63
2021/09/28 00:13:16;;;;;;;3.53;1.70;;;19.80;64.80;;;;;;4997144;28;20030;-69
2021/09/28 00:15:43;;;;;;;7.18;1.88;;;20.00;64.60;;;;;;4995452;28;20037;-64
2021/09/28 00:18:24;;;;;;;3.22;1.85;;;20.00;64.50;;;;;;4978855;28;20497;-63
2021/09/28 00:20:52;;;;;;;4.20;1.67;;;20.10;64.00;;;;;;4997083;28;20254;-67
2021/09/28 00:23:19;;;;;;;3.90;1.40;;;20.00;64.00;;;;;;5006305;28;20037;-62
2021/09/28 00:25:50;;;;;;;7.18;1.75;;;20.20;64.10;;;;;;4995714;28;20026;-61
2021/09/28 00:28:18;;;;;;;2.72;1.42;;;20.20;64.00;;;;;;4996871;28;20038;-66
2021/09/28 00:30:45;;;;;;;5.43;1.90;;;20.30;63.80;;;;;;5010400;28;20049;-66
2021/09/28 00:33:13;;;;;;;3.22;1.38;;;20.30;63.80;;;;;;5010513;28;20076;-69
2021/09/28 00:35:41;;;;;;;5.40;1.88;;;20.40;63.20;;;;;;5010465;28;20026;-71
2021/09/28 00:38:08;;;;;;;2.78;1.40;;;20.50;63.30;;;;;;5010777;28;20053;-71
2021/09/28 00:40:36;;;;;;;2.55;1.27;;;20.60;63.00;;;;;;5010636;28;20038;-69
2021/09/28 00:43:03;;;;;;;2.88;1.35;;;20.40;63.20;;;;;;5010647;28;20254;-70
2021/09/28 00:45:30;;;;;;;3.25;1.42;;;20.60;63.40;;;;;;5010406;28;20022;-70
2021/09/28 00:47:58;;;;;;;8.63;1.75;;;20.50;63.00;;;;;;5010635;28;20022;-68
2021/09/28 00:50:26;;;;;;;3.58;1.30;;;20.60;63.30;;;;;;5010974;28;20341;-66
2021/09/28 00:52:53;;;;;;;6.63;1.50;;;20.70;62.70;;;;;;5009685;28;20049;-66
2021/09/28 00:55:27;;;;;;;3.72;1.58;;;20.70;62.90;;;;;;5009824;28;20442;-70
2021/09/28 00:57:57;;;;;;;2.03;1.30;;;20.80;62.70;;;;;;5009970;28;20030;-64
2021/09/28 01:00:25;;;;;;;2.55;1.05;;;20.80;62.60;;;;;;5009746;28;20057;-68
2021/09/28 01:03:02;;;;;;;2.92;1.20;;;20.70;63.10;;;;;;5009471;28;20022;-61
2021/09/28 01:05:29;;;;;;;6.85;1.42;;;20.80;63.00;;;;;;5009314;28;20034;-64
2021/09/28 01:07:57;;;;;;;2.70;1.10;;;20.90;63.10;;;;;;5010095;28;20050;-63
2021/09/28 01:10:24;;;;;;;2.40;1.02;;;20.90;63.20;;;;;;5009922;28;20034;-66
2021/09/28 01:12:52;;;;;;;4.30;1.67;;;20.90;62.40;;;;;;5009570;28;20444;-68
2021/09/28 01:15:20;;;;;;;2.75;1.40;;;20.90;63.00;;;;;;5010408;28;20113;-64
2021/09/28 01:17:47;;;;;;;2.80;1.55;;;20.90;62.60;;;;;;5009871;28;20060;-64
2021/09/28 01:20:15;;;;;;;2.78;1.20;;;20.90;63.10;;;;;;5009721;28;20129;-68
2021/09/28 01:22:45;;;;;;;3.28;1.05;;;21.00;62.50;;;;;;5009210;28;20422;-61
2021/09/28 01:25:13;;;;;;;2.70;1.25;;;21.00;62.40;;;;;;5009231;28;20037;-66
2021/09/28 01:27:40;;;;;;;2.78;1.33;;;21.00;62.30;;;;;;4989579;28;20022;-66
2021/09/28 01:30:10;;;;;;;5.43;1.40;;;20.90;62.80;;;;;;5006903;28;20051;-64
2021/09/28 01:32:38;;;;;;;2.92;1.80;;;21.10;62.60;;;;;;5007256;28;20038;-61
2021/09/28 01:35:07;;;;;;;5.13;1.27;;;21.10;62.20;;;;;;5007997;28;20022;-63
2021/09/28 01:37:34;;;;;;;4.65;1.55;;;21.10;62.20;;;;;;5007856;28;20128;-62
2021/09/28 01:40:02;;;;;;;1.98;1.13;;;21.00;62.70;;;;;;4990168;28;20034;-64
2021/09/28 01:42:30;;;;;;;5.57;1.40;;;21.20;62.30;;;;;;5009314;28;20034;-64
2021/09/28 01:44:57;;;;;;;3.40;1.52;;;21.20;62.80;;;;;;5009417;28;20029;-63
2021/09/28 01:47:25;;;;;;;7.53;1.48;;;21.30;63.00;;;;;;5009833;28;20038;-64
2021/09/28 01:49:53;;;;;;;4.65;1.45;;;21.30;63.00;;;;;;5009770;28;20030;-64
2021/09/28 01:52:20;;;;;;;5.28;1.42;;;21.30;62.80;;;;;;5009152;28;20046;-66
2021/09/28 01:54:47;;;;;;;3.15;1.50;;;21.30;62.60;;;;;;5009277;28;20485;-66
2021/09/28 01:57:15;;;;;;;3.63;1.70;;;21.30;63.00;;;;;;4991986;28;20030;-66
2021/09/28 01:59:42;;;;;;;5.43;1.30;;;21.30;63.20;;;;;;5009748;28;20034;-65
2021/09/28 02:02:10;;;;;;;3.85;1.38;;;21.20;63.60;;;;;;5009460;28;20460;-66
2021/09/28 02:04:37;;;;;;;2.67;1.20;;;21.20;63.70;;;;;;5009335;28;20030;-65
2021/09/28 02:07:05;;;;;;;4.00;1.40;;;21.10;63.80;;;;;;5009171;28;20030;-66
2021/09/28 02:09:32;;;;;;;3.53;1.30;;;21.20;63.60;;;;;;5009004;28;20365;-69
2021/09/28 02:12:16;;;;;;;;;;;;;;;;;;;;;
2021/09/28 02:14:44;;;;;;;4.30;1.45;;;21.30;63.70;;;;;;5013691;28;20388;-69
2021/09/28 02:17:13;;;;;;;4.53;1.50;;;21.30;63.40;;;;;;5009042;28;20068;-66
2021/09/28 02:19:40;;;;;;;3.30;1.42;;;21.30;63.50;;;;;;5012595;28;20100;-69
2021/09/28 02:22:07;;;;;;;3.13;1.30;;;21.40;63.30;;;;;;5013073;28;20028;-68
2021/09/28 02:24:38;;;;;;;4.22;1.25;;;21.40;63.30;;;;;;5012962;28;20030;-69
2021/09/28 02:27:06;;;;;;;8.73;1.50;;;21.40;62.90;;;;;;5012905;28;20053;-65
2021/09/28 02:29:33;;;;;;;3.58;1.23;;;21.50;63.00;;;;;;4990869;28;20062;-73
2021/09/28 02:32:01;;;;;;;2.90;1.20;;;21.60;62.70;;;;;;5003514;28;20517;-68
2021/09/28 02:34:28;;;;;;;5.80;2.00;;;21.60;62.90;;;;;;5012097;28;20372;-63
2021/09/28 02:36:56;;;;;;;3.85;1.05;;;21.80;62.90;;;;;;5011848;28;20423;-64
2021/09/28 02:39:23;;;;;;;10.60;2.13;;;21.70;62.90;;;;;;5011446;28;20038;-57
2021/09/28 02:41:50;;;;;;;5.95;1.90;;;21.80;63.30;;;;;;5012606;28;20438;-60
2021/09/28 02:44:18;;;;;;;4.13;1.77;;;21.70;63.30;;;;;;5012112;28;20026;-64
2021/09/28 02:46:45;;;;;;;7.72;1.55;;;21.60;63.60;;;;;;5011883;28;20101;-65
2021/09/28 02:49:13;;;;;;;4.60;2.00;;;21.60;64.20;;;;;;5011972;28;20101;-65
2021/09/28 02:51:40;;;;;;;5.10;1.40;;;21.50;64.30;;;;;;5011746;28;20050;-65
2021/09/28 02:54:07;;;;;;;4.22;1.23;;;21.60;64.30;;;;;;5011829;28;20026;-61
2021/09/28 02:56:35;;;;;;;7.43;1.85;;;21.50;64.40;;;;;;5011407;28;20037;-62
2021/09/28 02:59:02;;;;;;;7.65;2.20;;;21.50;64.70;;;;;;5011454;28;20109;-59
2021/09/28 03:01:30;;;;;;;7.22;2.13;;;21.50;64.10;;;;;;5012284;28;20497;-59
2021/09/28 03:03:57;;;;;;;6.63;1.58;;;21.60;63.90;;;;;;5012082;28;20090;-64
2021/09/28 03:06:24;;;;;;;14.20;1.95;;;21.60;63.70;;;;;;4978642;28;20511;-58
2021/09/28 03:08:52;;;;;;;10.13;1.70;;;21.60;63.40;;;;;;5011548;28;20041;-65
2021/09/28 03:11:19;;;;;;;8.07;2.00;;;21.60;63.50;;;;;;5013036;28;20034;-70
2021/09/28 03:13:46;;;;;;;5.95;1.80;;;21.60;63.60;;;;;;4976883;28;20067;-64
2021/09/28 03:16:14;;;;;;;7.07;2.17;;;21.40;64.40;;;;;;4996225;28;20077;-67
2021/09/28 03:18:41;;;;;;;7.30;1.65;;;21.30;65.40;;;;;;4994822;28;20030;-69
2021/09/28 03:21:09;;;;;;;11.95;1.70;;;21.30;65.10;;;;;;4980273;28;20038;-65
2021/09/28 03:23:36;;;;;;;6.43;1.35;;;21.30;65.20;;;;;;4994173;28;20040;-73
2021/09/28 03:26:03;;;;;;;6.13;1.40;;;21.40;65.10;;;;;;4995860;28;20163;-62
2021/09/28 03:28:32;;;;;;;8.13;1.55;;;21.40;65.00;;;;;;4998353;28;20125;-68
2021/09/28 03:31:00;;;;;;;5.70;1.48;;;21.40;65.00;;;;;;4998359;28;20460;-67
2021/09/28 03:33:28;;;;;;;8.15;1.65;;;21.40;65.00;;;;;;4990628;28;20030;-66
2021/09/28 03:35:56;;;;;;;4.80;1.67;;;21.40;65.10;;;;;;4997032;28;20064;-61
2021/09/28 03:38:23;;;;;;;8.60;1.58;;;21.30;65.20;;;;;;4997597;28;20033;-73
2021/09/28 03:40:51;;;;;;;6.43;1.40;;;21.40;65.50;;;;;;4995369;28;20041;-66
2021/09/28 03:43:21;;;;;;;6.63;1.80;;;21.40;65.30;;;;;;4993508;28;20477;-64
2021/09/28 03:45:48;;;;;;;5.70;1.48;;;21.50;64.90;;;;;;4996259;28;20038;-63
2021/09/28 03:48:16;;;;;;;4.28;1.33;;;21.50;65.00;;;;;;4996258;28;20022;-67
2021/09/28 03:50:43;;;;;;;5.13;1.35;;;21.50;65.10;;;;;;4994271;28;20627;-62
2021/09/28 03:53:12;;;;;;;6.63;1.45;;;21.50;64.90;;;;;;4995578;28;20393;-64
2021/09/28 03:55:39;;;;;;;6.68;1.20;;;21.50;65.40;;;;;;4976675;28;20029;-66
2021/09/28 03:58:08;;;;;;;3.92;1.60;;;21.50;64.80;;;;;;4995376;28;20049;-65
2021/09/28 04:00:37;;;;;;;5.68;1.40;;;21.40;65.10;;;;;;4978862;28;20134;-65
2021/09/28 04:03:10;;;;;;;7.10;1.73;;;21.40;65.40;;;;;;4998270;28;20079;-67
2021/09/28 04:05:38;;;;;;;4.90;1.50;;;21.30;65.60;;;;;;4995126;28;20432;-68
2021/09/28 04:08:06;;;;;;;4.38;1.35;;;21.30;66.10;;;;;;5003652;28;20129;-67
2021/09/28 04:10:35;;;;;;;4.05;1.27;;;21.30;66.20;;;;;;5010881;28;20036;-69
2021/09/28 04:13:10;;;;;;;6.38;1.60;;;21.30;66.20;;;;;;5011249;28;20105;-74
2021/09/28 04:15:39;;;;;;;8.27;1.63;;;21.20;66.20;;;;;;5010716;28;20033;-70
2021/09/28 04:18:12;;;;;;;4.38;1.38;;;21.10;66.40;;;;;;5011072;28;20018;-71
2021/09/28 04:20:49;;;;;;;5.68;1.73;;;21.00;66.60;;;;;;5010863;28;20441;-71
2021/09/28 04:23:16;;;;;;;4.55;1.00;;;21.00;67.20;;;;;;5011231;28;20430;-69
2021/09/28 04:25:44;;;;;;;9.70;2.75;;;20.90;67.20;;;;;;5010681;28;20026;-68
2021/09/28 04:28:11;;;;;;;5.47;1.65;;;20.90;67.60;;;;;;5010600;28;20042;-68
2021/09/28 04:30:39;;;;;;;4.32;1.10;;;20.80;67.70;;;;;;5011114;28;20030;-72
2021/09/28 04:33:06;;;;;;;6.55;1.27;;;20.80;68.00;;;;;;5010689;28;20113;-73
2021/09/28 04:35:34;;;;;;;4.65;1.63;;;20.70;68.40;;;;;;5009936;28;20021;-70
2021/09/28 04:38:02;;;;;;;4.25;1.50;;;20.60;68.80;;;;;;5010632;28;20023;-73
2021/09/28 04:40:29;;;;;;;6.43;1.85;;;20.50;69.00;;;;;;5009587;28;20037;-71
2021/09/28 04:42:56;;;;;;;3.22;0.82;;;20.50;69.20;;;;;;5010809;28;20057;-69
2021/09/28 04:45:24;;;;;;;5.63;1.60;;;20.50;69.50;;;;;;5010556;28;20041;-72
2021/09/28 04:47:51;;;;;;;5.78;1.23;;;20.40;69.90;;;;;;5010318;28;20399;-67
2021/09/28 04:50:19;;;;;;;3.42;1.40;;;20.40;70.00;;;;;;4976505;28;20082;-66
2021/09/28 04:52:46;;;;;;;3.90;1.48;;;20.30;70.30;;;;;;5010384;28;20483;-69
2021/09/28 04:55:13;;;;;;;6.22;1.25;;;20.30;70.40;;;;;;4992898;28;20508;-71
2021/09/28 04:57:41;;;;;;;8.13;1.77;;;20.20;70.60;;;;;;5010494;28;20038;-70
2021/09/28 05:00:10;;;;;;;7.43;1.88;;;20.20;70.80;;;;;;5010542;28;20445;-72
2021/09/28 05:02:38;;;;;;;8.45;2.17;;;20.10;70.90;;;;;;5010445;28;20018;-66
2021/09/28 05:05:07;;;;;;;4.32;1.13;;;20.10;71.10;;;;;;4993053;28;20078;-69
2021/09/28 05:07:34;;;;;;;4.60;1.48;;;20.10;71.20;;;;;;5010176;28;20034;-68
2021/09/28 05:10:02;;;;;;;7.55;1.77;;;20.10;71.50;;;;;;5009423;28;20342;-64
2021/09/28 05:12:29;;;;;;;3.72;1.30;;;20.10;71.50;;;;;;5009993;28;20067;-72
2021/09/28 05:14:57;;;;;;;5.68;1.52;;;20.00;72.20;;;;;;4992691;28;20036;-68
2021/09/28 05:17:25;;;;;;;5.93;1.60;;;20.00;71.90;;;;;;5010122;28;20024;-66
2021/09/28 05:19:53;;;;;;;7.43;1.70;;;20.00;72.00;;;;;;5009417;28;20037;-67
2021/09/28 05:22:20;;;;;;;4.55;1.50;;;20.00;71.90;;;;;;5010218;28;20030;-69
2021/09/28 05:24:47;;;;;;;7.43;1.60;;;19.90;72.30;;;;;;5009894;28;20022;-66
2021/09/28 05:27:15;;;;;;;5.10;1.50;;;19.90;73.30;;;;;;5007485;28;20041;-67
2021/09/28 05:29:42;;;;;;;5.78;1.42;;;19.90;72.40;;;;;;5011095;28;20678;-74
2021/09/28 05:32:10;;;;;;;7.22;2.22;;;19.90;72.80;;;;;;5015068;28;20105;-74
2021/09/28 05:34:37;;;;;;;9.10;2.75;;;19.90;73.50;;;;;;5016434;28;20029;-68
2021/09/28 05:37:05;;;;;;;8.02;2.50;;;19.90;73.10;;;;;;5012688;28;20090;-72
2021/09/28 05:39:33;;;;;;;8.52;3.25;;;19.90;73.10;;;;;;5011261;28;20030;-72
2021/09/28 05:42:01;;;;;;;5.80;3.03;;;19.80;73.20;;;;;;5011193;28;20044;-71
2021/09/28 05:44:28;;;;;;;4.68;3.10;;;19.80;73.40;;;;;;5011888;28;20354;-73
2021/09/28 05:46:56;;;;;;;11.65;4.07;;;19.80;73.20;;;;;;5012205;28;20103;-74
2021/09/28 05:49:23;;;;;;;9.00;3.78;;;19.80;73.60;;;;;;5012078;28;20018;-69
2021/09/28 05:51:56;;;;;;;8.57;3.85;;;19.90;73.50;;;;;;4994629;28;20085;-72
2021/09/28 05:54:24;;;;;;;7.40;3.83;;;19.90;73.80;;;;;;4998228;28;20026;-71
2021/09/28 05:56:53;;;;;;;10.65;3.97;;;19.90;73.60;;;;;;5015498;28;20044;-66
2021/09/28 05:59:21;;;;;;;8.60;3.80;;;19.90;73.40;;;;;;5014780;28;20170;-68
2021/09/28 06:01:49;;;;;;;7.00;3.95;;;19.90;73.70;;;;;;5013565;28;20492;-67
2021/09/28 06:04:16;;;;;;;7.32;3.72;;;19.90;73.70;;;;;;5014267;28;20383;-69
2021/09/28 06:06:44;;;;;;;6.90;3.78;;;19.90;73.70;;;;;;5014268;28;20026;-64
2021/09/28 06:09:11;;;;;;;8.20;3.72;;;19.90;73.40;;;;;;5012988;28;20033;-63
2021/09/28 06:11:40;;;;;;;6.22;3.38;;;19.90;73.30;;;;;;5012428;28;20034;-67
2021/09/28 06:14:08;;;;;;;9.25;3.45;;;19.80;73.60;;;;;;4996541;28;20037;-71
2021/09/28 06:16:39;;;;;;;7.15;2.92;;;19.90;74.00;;;;;;5013430;28;20403;-67
2021/09/28 06:19:06;;;;;;;8.27;3.20;;;19.90;73.80;;;;;;4995361;28;20025;-70
2021/09/28 06:21:34;;;;;;;8.73;3.58;;;19.90;74.30;;;;;;4995079;28;20042;-71
2021/09/28 06:24:01;;;;;;;12.10;3.70;;;19.80;74.00;;;;;;5012775;28;20030;-71
2021/09/28 06:26:28;;;;;;;7.88;3.58;;;19.90;74.00;;;;;;4994874;28;20055;-69
2021/09/28 06:28:56;;;;;;;9.32;2.88;;;19.80;74.00;;;;;;4995262;28;20022;-74
2021/09/28 06:31:26;;;;;;;8.20;3.28;;;19.80;74.00;;;;;;5012918;28;20396;-74
2021/09/28 06:33:54;;;;;;;6.68;2.85;;;19.80;74.10;;;;;;5097362;28;20034;-70
2021/09/28 06:36:21;;;;;;;10.25;4.35;;;19.80;74.10;;;;;;5012896;28;20135;-69
2021/09/28 06:38:49;;;;;;;7.88;3.72;;;19.70;74.30;;;;;;4995545;28;20022;-66
2021/09/28 06:41:16;;;;;;;8.15;3.58;;;19.80;74.60;;;;;;5012837;28;20061;-71
2021/09/28 06:43:44;;;;;;;8.63;3.42;;;19.70;74.60;;;;;;5012688;28;20037;-71
2021/09/28 06:46:11;;;;;;;12.15;3.90;;;19.70;74.80;;;;;;5012865;28;20045;-71
2021/09/28 06:48:38;;;;;;;15.25;3.03;;;19.70;75.10;;;;;;5012561;28;20480;-71
2021/09/28 06:51:06;;;;;;;8.00;2.90;;;19.70;75.20;;;;;;4994817;28;20050;-72
2021/09/28 06:53:33;;;;;;;6.95;2.88;;;19.70;75.30;;;;;;5012082;28;20022;-70
2021/09/28 06:56:01;;;;;;;7.90;2.97;;;19.70;75.70;;;;;;5011936;28;20042;-70
2021/09/28 06:58:28;;;;;;;8.88;2.88;;;19.70;75.80;;;;;;4997106;28;20112;-70
2021/09/28 07:00:56;;;;;;;7.32;3.42;;;19.70;76.10;;;;;;4997372;28;20042;-69
2021/09/28 07:03:23;;;;;;;13.43;3.20;;;19.70;76.70;;;;;;4998785;28;20504;-71
2021/09/28 07:05:51;;;;;;;9.85;2.90;;;19.70;76.40;;;;;;4994845;28;20124;-68
2021/09/28 07:08:19;;;;;;;9.48;3.22;;;19.70;76.50;;;;;;4998090;28;20412;-61
2021/09/28 07:10:47;;;;;;;7.40;2.50;;;19.70;76.80;;;;;;4999810;28;20029;-63
2021/09/28 07:13:14;;;;;;;12.77;3.20;;;19.70;76.30;;;;;;4997876;28;20068;-66
2021/09/28 07:15:44;;;;;;;9.60;2.88;;;19.70;76.30;;;;;;4977027;28;20038;-65
2021/09/28 07:18:12;;;;;;;7.38;2.60;;;19.70;76.60;;;;;;5000330;28;20422;-63
2021/09/28 07:20:40;;;;;;;5.90;2.35;;;19.70;76.40;;;;;;5001614;28;20072;-65
2021/09/28 07:23:09;;;;;;;14.20;3.00;;;19.70;76.40;;;;;;5012057;28;20376;-67
2021/09/28 07:25:37;;;;;;;21.75;3.55;;;19.70;76.50;;;;;;5011740;28;20075;-69
2021/09/28 07:28:04;;;;;;;9.82;2.40;;;19.70;76.40;;;;;;5011888;28;20079;-68
2021/09/28 07:30:34;;;;;;;10.15;2.88;;;19.70;76.60;;;;;;5011415;28;20052;-66
2021/09/28 07:33:02;;;;;;;9.50;2.28;;;19.70;76.60;;;;;;5011721;28;20018;-67
2021/09/28 07:35:30;;;;;;;10.82;2.67;;;19.60;76.70;;;;;;5011671;28;20469;-66
2021/09/28 07:37:58;;;;;;;7.60;2.70;;;19.60;76.90;;;;;;5011194;28;20460;-67
2021/09/28 07:40:26;;;;;;;5.35;2.78;;;19.60;76.80;;;;;;4994100;28;20041;-65
2021/09/28 07:42:53;;;;;;;6.38;2.40;;;19.60;76.80;;;;;;5011639;28;20030;-69
2021/09/28 07:45:21;;;;;;;9.95;2.60;;;19.60;77.10;;;;;;4994947;28;20028;-68
2021/09/28 07:47:50;;;;;;;7.55;2.67;;;19.60;77.00;;;;;;5007368;28;20022;-65
2021/09/28 07:50:18;;;;;;;11.43;2.67;;;19.60;77.20;;;;;;4976405;28;20068;-65
2021/09/28 07:52:45;;;;;;;12.13;2.42;;;19.60;77.20;;;;;;4997437;28;20046;-66
2021/09/28 07:55:13;;;;;;;12.25;3.25;;;19.50;77.30;;;;;;4998159;28;20453;-60
2021/09/28 07:57:41;;;;;;;9.55;2.97;;;19.50;77.30;;;;;;4995364;28;20123;-69
2021/09/28 08:00:10;;;;;;;7.50;2.90;;;19.50;77.50;;;;;;4998150;28;20033;-66
2021/09/28 08:02:41;;;;;;;8.07;2.35;;;19.50;77.50;;;;;;4995981;28;20021;-64
2021/09/28 08:05:10;;;;;;;7.45;2.63;;;19.40;77.50;;;;;;4998169;28;20037;-64
2021/09/28 08:07:42;;;;;;;7.90;2.67;;;19.50;77.70;;;;;;4995576;28;21156;-69
2021/09/28 08:10:11;;;;;;;9.27;2.90;;;19.40;77.70;;;;;;4998826;28;20038;-64
2021/09/28 08:12:40;;;;;;;6.95;2.40;;;19.40;77.60;;;;;;4993602;28;20114;-64
2021/09/28 08:15:08;;;;;;;11.00;3.03;;;19.30;78.10;;;;;;4994634;28;20034;-65
2021/09/28 08:17:36;;;;;;;5.20;2.63;;;19.30;77.70;;;;;;4978906;28;20077;-64
2021/09/28 08:20:03;;;;;;;7.70;2.58;;;19.30;78.00;;;;;;4998811;28;20054;-63
2021/09/28 08:22:31;;;;;;;5.53;2.35;;;19.20;77.90;;;;;;4990962;28;20997;-67
2021/09/28 08:25:07;;;;;;;9.93;3.17;;;19.30;78.30;;;;;;4997216;28;20872;-61
2021/09/28 08:30:20;;;;;;;5.68;2.63;;;19.30;78.30;;;;;;4998243;28;20083;-68
2021/09/28 08:32:47;;;;;;;7.32;2.55;;;19.30;78.40;;;;;;4990784;28;20053;-70
2021/09/28 08:35:18;;;;;;;9.00;2.42;;;19.30;78.60;;;;;;4996543;28;20804;-62
2021/09/28 08:37:45;;;;;;;8.02;2.83;;;19.30;78.80;;;;;;4997308;28;20037;-68
2021/09/28 08:40:20;;;;;;;11.93;3.00;;;19.20;78.90;;;;;;4997965;28;20065;-62
2021/09/28 08:42:48;;;;;;;7.32;2.63;;;19.20;78.80;;;;;;4989246;28;20033;-65
2021/09/28 08:45:33;;;;;;;8.52;2.88;;;19.20;78.60;;;;;;4996262;28;20405;-69
2021/09/28 08:48:01;;;;;;;7.60;2.65;;;19.20;78.90;;;;;;4995184;28;20512;-65
2021/09/28 08:50:28;;;;;;;9.75;4.00;;;19.20;78.80;;;;;;4994845;28;20058;-62
2021/09/28 08:52:55;;;;;;;11.02;4.43;;;19.20;78.70;;;;;;4970451;28;20064;-68
2021/09/28 08:55:24;;;;;;;12.60;4.68;;;19.20;78.80;;;;;;4996585;28;20030;-68
2021/09/28 08:58:11;;;;;;;8.40;4.32;;;19.20;78.80;;;;;;4995288;28;20014;-63
2021/09/28 09:00:38;;;;;;;13.32;5.43;;;19.20;79.00;;;;;;4997283;28;20038;-67
2021/09/28 09:03:06;;;;;;;10.20;5.35;;;19.20;79.10;;;;;;4990424;28;20057;-66
2021/09/28 09:05:33;;;;;;;10.35;4.60;;;19.10;79.00;;;;;;4994108;28;20220;-66
2021/09/28 09:08:09;;;;;;;9.40;4.53;;;19.10;79.30;;;;;;4995466;28;20508;-67
2021/09/28 09:10:37;;;;;;;12.07;4.72;;;19.10;79.20;;;;;;4977511;28;20038;-63
2021/09/28 09:13:05;;;;;;;14.30;5.18;;;19.10;79.30;;;;;;4990451;28;20037;-66
2021/09/28 09:15:35;;;;;;;12.00;4.43;;;19.10;79.40;;;;;;4996606;28;20033;-66
2021/09/28 09:18:07;;;;;;;14.55;6.05;;;19.10;80.10;;;;;;4996499;28;20067;-63
2021/09/28 09:20:42;;;;;;;23.58;9.32;;;19.10;80.00;;;;;;4994884;28;20034;-68
2021/09/28 09:23:21;;;;;;;31.52;16.52;;;19.10;79.70;;;;;;4990435;28;20473;-70
2021/09/28 09:25:58;;;;;;;57.33;28.77;;;19.10;79.50;;;;;;4997011;28;20469;-65
2021/09/28 09:28:33;;;;;;;83.75;45.75;;;19.10;79.50;;;;;;4995681;28;20045;-66
2021/09/28 09:31:14;;;;;;;89.10;46.05;;;19.10;79.80;;;;;;4996634;28;20054;-65
2021/09/28 09:33:44;;;;;;;97.07;53.30;;;19.10;79.90;;;;;;4990919;28;20498;-63
2021/09/28 09:36:18;;;;;;;96.35;54.25;;;19.10;79.90;;;;;;4995308;28;20458;-62
2021/09/28 09:38:57;;;;;;;106.18;57.20;;;19.00;80.20;;;;;;4996370;28;20030;-63
2021/09/28 09:41:32;;;;;;;101.13;56.17;;;19.10;80.10;;;;;;4994215;28;20046;-65
2021/09/28 09:44:17;;;;;;;97.57;56.63;;;19.10;80.00;;;;;;4995178;28;20480;-67
2021/09/28 09:46:48;;;;;;;112.32;60.85;;;19.10;80.30;;;;;;4976836;28;20044;-67
2021/09/28 09:49:26;;;;;;;111.40;64.32;;;19.10;80.40;;;;;;4994703;28;20837;-66
2021/09/28 09:51:58;;;;;;;110.93;60.83;;;19.10;80.30;;;;;;4988978;28;20149;-61
2021/09/28 09:54:40;;;;;;;118.07;66.68;;;19.00;80.00;;;;;;4996825;28;20178;-66
2021/09/28 09:57:12;;;;;;;117.65;62.20;;;19.10;80.10;;;;;;4978934;28;20030;-65
2021/09/28 09:59:42;;;;;;;117.03;63.80;;;19.10;80.30;;;;;;4994203;28;20030;-62
2021/09/28 10:02:10;;;;;;;102.18;55.05;;;19.10;80.40;;;;;;4991580;28;20034;-64
2021/09/28 10:04:38;;;;;;;105.95;59.92;;;19.10;80.30;;;;;;4997006;28;20107;-62
2021/09/28 10:07:05;;;;;;;112.57;63.28;;;19.10;80.60;;;;;;4994285;28;20495;-66
2021/09/28 10:09:38;;;;;;;113.15;61.00;;;19.00;80.20;;;;;;4995845;28;20034;-64
2021/09/28 10:12:10;;;;;;;119.57;65.97;;;19.10;80.40;;;;;;4992968;28;20046;-64
2021/09/28 10:14:46;;;;;;;107.35;61.42;;;19.00;80.20;;;;;;4978043;28;20018;-65
2021/09/28 10:17:22;;;;;;;111.68;62.55;;;19.10;80.20;;;;;;4994969;28;20068;-62
2021/09/28 10:19:50;;;;;;;97.00;55.75;;;19.10;80.50;;;;;;4994372;28;20049;-64
2021/09/28 10:22:36;;;;;;;90.72;50.10;;;19.10;80.20;;;;;;4993009;28;20734;-67
2021/09/28 10:25:31;;;;;;;97.68;54.22;;;19.10;80.30;;;;;;4997848;28;20022;-62
2021/09/28 10:28:05;;;;;;;107.72;58.15;;;19.00;80.10;;;;;;4979579;28;20029;-61
2021/09/28 10:33:04;;;;;;;107.13;58.70;;;19.00;80.60;;;;;;4990545;28;20087;-67
2021/09/28 10:35:33;;;;;;;96.88;56.08;;;19.00;80.20;;;;;;4998338;28;20101;-66
2021/09/28 10:38:08;;;;;;;98.38;56.47;;;19.00;80.30;;;;;;4996637;28;20038;-68
2021/09/28 10:40:36;;;;;;;98.45;56.67;;;19.00;80.30;;;;;;4999679;28;20049;-64
2021/09/28 10:43:30;;;;;;;104.90;58.40;;;19.00;80.60;;;;;;4994626;28;20286;-64
2021/09/28 10:46:39;;;;;;;111.07;59.58;;;19.00;80.20;;;;;;4999971;28;20065;-56
2021/09/28 10:49:30;;;;;;;97.43;56.92;;;19.00;80.30;;;;;;4996928;28;20430;-52
2021/09/28 10:52:21;;;;;;;103.45;56.13;;;19.00;80.40;;;;;;4992176;28;20058;-64
2021/09/28 10:55:10;;;;;;;102.45;57.47;;;19.00;80.40;;;;;;4997614;28;20281;-61
2021/09/28 10:58:03;;;;;;;97.60;53.40;;;19.00;80.50;;;;;;4997715;28;20029;-64
2021/09/28 11:00:54;;;;;;;92.43;52.83;;;19.00;80.60;;;;;;4997874;28;20526;-64
2021/09/28 11:03:44;;;;;;;96.63;54.05;;;19.00;80.70;;;;;;4993363;28;20049;-66
2021/09/28 11:06:14;;;;;;;90.82;53.08;;;19.00;80.70;;;;;;4998599;28;20030;-57
2021/09/28 11:08:41;;;;;;;99.13;54.42;;;18.90;81.20;;;;;;4998284;28;20109;-61
2021/09/28 11:11:11;;;;;;;89.13;51.83;;;18.90;80.60;;;;;;4998914;28;20022;-62
2021/09/28 11:13:41;;;;;;;91.18;52.58;;;18.90;80.90;;;;;;4975688;28;20833;-65
2021/09/28 11:16:18;;;;;;;96.45;51.03;;;18.90;80.50;;;;;;4999539;28;20082;-65
2021/09/28 11:19:01;;;;;;;89.72;52.63;;;18.90;80.90;;;;;;5000003;28;20033;-69
2021/09/28 11:21:29;;;;;;;90.25;51.35;;;18.90;80.60;;;;;;4996322;28;20056;-67
2021/09/28 11:23:56;;;;;;;86.10;50.30;;;18.90;80.80;;;;;;4995571;28;20087;-68
2021/09/28 11:26:38;;;;;;;88.63;49.63;;;18.90;80.50;;;;;;4983367;28;20436;-71
2021/09/28 11:29:07;;;;;;;88.68;47.63;;;18.90;80.50;;;;;;4998190;28;20107;-71
2021/09/28 11:31:37;;;;;;;84.22;47.42;;;18.90;81.20;;;;;;4997394;28;20467;-68
2021/09/28 11:34:11;;;;;;;90.43;48.08;;;18.90;81.20;;;;;;4980026;28;20038;-65
2021/09/28 11:36:41;;;;;;;86.18;49.55;;;18.90;80.80;;;;;;4997368;28;20037;-69
2021/09/28 11:39:24;;;;;;;84.82;48.20;;;18.80;80.60;;;;;;4980895;28;20022;-64
2021/09/28 11:42:14;;;;;;;85.97;47.45;;;18.90;80.60;;;;;;4994995;28;20077;-63
2021/09/28 11:44:46;;;;;;;80.13;47.88;;;18.90;80.80;;;;;;4999930;28;20014;-64
2021/09/28 11:47:16;;;;;;;75.32;46.45;;;18.80;81.10;;;;;;4997613;28;20061;-63
2021/09/28 11:49:52;;;;;;;81.50;45.92;;;18.90;80.60;;;;;;4997669;28;20030;-62
2021/09/28 11:52:20;;;;;;;75.78;46.42;;;18.90;80.80;;;;;;4995362;28;20046;-65
2021/09/28 11:54:52;;;;;;;76.07;44.15;;;18.80;80.60;;;;;;4981364;28;20085;-65
2021/09/28 11:57:22;;;;;;;74.90;44.33;;;18.80;80.60;;;;;;4979660;28;20462;-67
2021/09/28 11:59:53;;;;;;;75.28;45.35;;;18.90;80.70;;;;;;4980035;28;20042;-63
2021/09/28 12:02:22;;;;;;;77.33;45.60;;;18.90;80.50;;;;;;4993896;28;20033;-63
2021/09/28 12:11:01;;;;;;;69.10;39.90;;;18.90;80.40;;;;;;4981568;28;20041;-61
2021/09/28 12:13:46;;;;;;;66.57;41.22;;;18.90;80.70;;;;;;4992712;28;20393;-67
2021/09/28 12:16:16;;;;;;;69.22;41.47;;;18.90;80.40;;;;;;4979882;28;20049;-67
2021/09/28 12:18:44;;;;;;;69.88;40.85;;;18.90;80.40;;;;;;4996908;28;20091;-64
2021/09/28 12:21:29;;;;;;;76.13;43.28;;;18.90;80.40;;;;;;4996338;28;20163;-64
2021/09/28 12:24:19;;;;;;;67.75;39.15;;;18.90;80.30;;;;;;4996049;28;20022;-67
2021/09/28 12:26:48;;;;;;;75.07;41.70;;;18.90;80.40;;;;;;4997953;28;20091;-66
2021/09/28 12:29:21;;;;;;;70.00;42.30;;;18.90;80.30;;;;;;4995291;28;20026;-68
2021/09/28 12:31:49;;;;;;;66.07;39.42;;;18.90;80.80;;;;;;4988981;28;20035;-64
2021/09/28 12:34:17;;;;;;;62.50;39.05;;;18.90;80.50;;;;;;4997863;28;20459;-66
2021/09/28 12:36:44;;;;;;;69.75;40.42;;;18.90;80.20;;;;;;4996036;28;20925;-65
2021/09/28 12:39:25;;;;;;;63.97;39.15;;;18.90;80.30;;;;;;4996833;28;20030;-63
2021/09/28 12:42:02;;;;;;;65.32;40.13;;;18.90;80.00;;;;;;4974247;28;20060;-68
2021/09/28 12:44:30;;;;;;;61.35;36.40;;;18.90;80.10;;;;;;4998879;28;20026;-66
2021/09/28 12:46:58;;;;;;;73.70;42.58;;;18.90;80.00;;;;;;4997856;28;20033;-66
2021/09/28 12:49:30;;;;;;;62.58;38.17;;;18.90;79.90;;;;;;4995888;28;20030;-64
2021/09/28 12:52:00;;;;;;;63.78;37.75;;;18.90;79.90;;;;;;4991332;28;20459;-67
2021/09/28 12:54:28;;;;;;;69.15;40.92;;;18.90;79.90;;;;;;4998109;28;20508;-69
2021/09/28 12:56:56;;;;;;;58.75;35.42;;;18.90;79.90;;;;;;4996434;28;20095;-66
2021/09/28 12:59:24;;;;;;;70.65;39.63;;;18.90;79.90;;;;;;4996287;28;21064;-67
2021/09/28 13:01:52;;;;;;;58.83;36.00;;;18.90;79.90;;;;;;4991444;28;20046;-69
2021/09/28 13:04:20;;;;;;;65.70;38.17;;;18.90;79.80;;;;;;4997057;28;20026;-67
2021/09/28 13:06:53;;;;;;;63.97;37.05;;;18.90;79.90;;;;;;4996216;28;20117;-66